Terminal Aerodrome Forecast
Issued by NWS

Home | Current Version | Previous Version | Text Only | Print | Product List | Glossary On
Versions: 1 2 3 4 5 6 7 8 9 10 11 12 13 14 15 16 17 18 19 20 21 22 23 24 25 26 27 28 29 30 31 32 33 34
411
FTUS45 KSLC 271740
TAFPVU
TAF
KPVU 271740Z 2718/2818 VRB05KT P6SM -SHRA SCT025 BKN040
     FM271830 27010KT 5SM -RA SCT015 BKN025
     FM280000 35013G20KT 6SM -SHRA SCT025 BKN040
     FM280700 35008KT P6SM VCSH SCT030 BKN050=

USA.gov is the U.S. government's official web portal to all federal, state and local government web resources and services.